aviador You're here:

KAWM Decoded Metar

W MEMPHIS MUNI in AR, USA
Report Time2017-06-24 21:53:00
UTC Time2017-06-24 22:21:39
Flight Rules vfr VFR
Wind020° at 10 kt
W.Decomp.*RWY 35: 8.7 kt HW 4.8 kt RCW
W.Rank020° ranks 7
Current wind is above 020° avg. (8.8)
Visibility9999 m
Phenomena:N/A
Clouds:Few 040 Hf
Expected CloudBase > 3,600 ft AGL from Temp-Dew spread
CeilingNone
Temp26°C (ISA +11)
Dew Point17°C (58% RH)
AAT24.8°C
QNH1019 hPa
Density Alt1,591 ft
Elevation213 ft
Report Wrong Elevation
Raw Report
KAWM 242153Z AUTO 02010KT 10SM FEW040 26/17 A3008 RMK AO2 SLP180
T02610172=

Extra information for KAWM:More info

Metar Taf Metar & Taf Last 4 Metars F.Rules Stats Wind Profile Meteogram Temp Stats Airport Information Weather charts Add Link Nearby VenuesMetar ALERT Operation Metar Decoded Social comments

AIRNAV info for KAWM